Time;durP1;ratioP1;P1;durP2;ratioP2;P2;SDS_P1;SDS_P2;PMS_P1;PMS_P2;Temp;Humidity;BMP_temperature;BMP_pressure;BME280_temperature;BME280_humidity;BME280_pressure;Samples;Min_cycle;Max_cycle;Signal;HPM_P1;HPM_P2
2023/07/16 00:03:00;;;;;;;4.90;3.33;;;;;;;-145.68;65.12;72374.63;10452129;28;20567;-64
2023/07/16 00:08:00;;;;;;;5.22;3.22;;;;;;;-145.68;65.37;72398.63;10452511;28;20187;-64
2023/07/16 00:13:00;;;;;;;5.35;3.35;;;;;;;-145.68;65.74;72416.59;10452094;28;20208;-62
2023/07/16 00:18:01;;;;;;;4.03;3.63;;;;;;;-145.68;67.01;72498.53;10452168;28;20199;-62
2023/07/16 00:23:01;;;;;;;6.43;3.35;;;;;;;-145.68;63.60;72494.53;10451556;28;20752;-64
2023/07/16 00:28:02;;;;;;;5.78;2.95;;;;;;;-145.68;62.85;72506.50;10451835;28;20183;-64
2023/07/16 00:33:03;;;;;;;3.78;2.83;;;;;;;-145.68;62.35;72496.53;10451788;28;20208;-64
2023/07/16 00:38:03;;;;;;;10.20;3.33;;;;;;;-145.68;62.57;72484.53;10451568;28;20669;-62
2023/07/16 00:43:03;;;;;;;6.03;2.97;;;;;;;-145.68;62.87;72492.53;10450271;28;20634;-64
2023/07/16 00:48:04;;;;;;;7.35;3.05;;;;;;;-145.68;64.02;72508.50;10450207;28;20196;-64
2023/07/16 00:53:06;;;;;;;8.38;3.60;;;;;;;-145.68;65.24;72520.50;10456518;28;20259;-64
2023/07/16 00:58:07;;;;;;;5.80;3.25;;;;;;;-145.68;66.37;72516.50;10458889;28;20960;-64
2023/07/16 01:03:09;;;;;;;6.57;2.80;;;;;;;-145.68;66.77;72506.50;10457052;28;20582;-65
2023/07/16 01:08:10;;;;;;;3.33;2.25;;;;;;;-145.68;66.44;72496.53;10458680;28;20199;-65
2023/07/16 01:13:10;;;;;;;2.38;1.45;;;;;;;-145.68;65.32;72488.53;10456912;28;20215;-64
2023/07/16 01:18:11;;;;;;;1.30;1.20;;;;;;;-145.68;65.98;72504.53;10456932;28;20196;-64
2023/07/16 01:23:37;;;;;;;3.70;1.20;;;;;;;-145.68;66.86;72506.50;10457833;28;20211;-64
2023/07/16 01:29:09;;;;;;;2.70;1.30;;;;;;;-145.68;68.31;72484.53;10456323;28;20184;-64
2023/07/16 01:34:10;;;;;;;5.68;1.50;;;;;;;-145.68;69.60;72512.50;10455745;28;20194;-64
2023/07/16 01:39:11;;;;;;;2.55;1.88;;;;;;;-145.68;70.45;72518.50;10455375;28;20230;-64
2023/07/16 01:44:11;;;;;;;1.40;1.25;;;;;;;-145.68;73.26;72554.47;10456736;28;20562;-64
2023/07/16 01:49:13;;;;;;;4.70;1.60;;;;;;;-145.68;76.36;72536.50;10455444;28;20204;-64
2023/07/16 01:54:13;;;;;;;1.50;1.40;;;;;;;-145.68;78.46;72538.50;10456789;28;20595;-64
2023/07/16 01:59:14;;;;;;;2.35;1.85;;;;;;;-145.68;80.76;72568.47;10456353;28;20225;-63
2023/07/16 02:04:14;;;;;;;2.55;1.80;;;;;;;-145.68;85.86;72596.44;10454206;28;20191;-65
2023/07/16 02:09:15;;;;;;;3.00;1.50;;;;;;;-145.68;92.85;72630.41;10454761;28;20207;-65
2023/07/16 02:14:17;;;;;;;2.38;1.45;;;;;;;-145.68;97.89;72636.41;10454813;28;20232;-65
2023/07/16 02:19:17;;;;;;;2.58;1.30;;;;;;;-145.68;98.50;72650.41;10454268;28;20264;-65
2023/07/16 02:24:17;;;;;;;8.02;1.50;;;;;;;-145.68;99.17;72664.38;10455642;28;20192;-64
2023/07/16 02:29:18;;;;;;;4.03;1.42;;;;;;;-145.68;100.00;72686.38;10455242;28;20211;-63
2023/07/16 02:34:18;;;;;;;3.78;1.20;;;;;;;-145.68;100.00;72696.34;10453995;28;20722;-64
2023/07/16 02:39:19;;;;;;;7.90;1.90;;;;;;;-145.68;100.00;72718.34;10455112;28;20258;-66
2023/07/16 02:44:19;;;;;;;1.50;1.20;;;;;;;-145.68;100.00;72818.25;10453398;28;20180;-66
2023/07/16 02:49:19;;;;;;;5.57;1.60;;;;;;;-145.68;100.00;72926.19;10454495;28;20255;-65
2023/07/16 02:54:20;;;;;;;1.80;1.70;;;;;;;-145.68;100.00;72984.13;10454341;28;20681;-65
2023/07/16 02:59:20;;;;;;;3.05;2.05;;;;;;;-145.68;100.00;72984.13;10452880;28;20218;-65
2023/07/16 03:04:21;;;;;;;4.60;1.80;;;;;;;-145.68;100.00;73014.13;10473437;28;20245;-65
2023/07/16 03:09:21;;;;;;;2.53;1.83;;;;;;;-145.68;100.00;73018.13;10495142;28;20203;-65
2023/07/16 03:14:21;;;;;;;4.13;2.15;;;;;;;-145.68;100.00;73048.09;10494862;28;20563;-64
2023/07/16 03:19:22;;;;;;;3.33;2.10;;;;;;;-145.68;100.00;73064.09;10494561;28;20219;-65
2023/07/16 03:24:22;;;;;;;6.97;2.10;;;;;;;-145.68;100.00;73042.09;10493672;28;20190;-65
2023/07/16 03:29:24;;;;;;;2.80;2.40;;;;;;;-145.68;100.00;73034.09;10494446;28;20203;-65
2023/07/16 03:34:24;;;;;;;4.30;2.65;;;;;;;-145.68;100.00;73026.09;10493356;28;20195;-66
2023/07/16 03:39:25;;;;;;;4.53;2.85;;;;;;;-145.68;100.00;73026.09;10492754;28;20215;-66
2023/07/16 03:44:29;;;;;;;4.15;2.50;;;;;;;-145.68;100.00;73000.13;10492784;28;20214;-67
2023/07/16 03:49:29;;;;;;;6.30;3.17;;;;;;;-145.68;100.00;72998.13;10492567;28;20235;-67
2023/07/16 03:54:30;;;;;;;6.75;3.28;;;;;;;-145.68;100.00;73020.13;10493909;28;20183;-67
2023/07/16 03:59:30;;;;;;;5.47;2.97;;;;;;;-145.68;100.00;73016.13;10492600;28;20314;-67
2023/07/16 04:04:31;;;;;;;4.65;2.72;;;;;;;-145.68;100.00;73006.13;10492288;28;20266;-67
2023/07/16 04:09:31;;;;;;;4.63;3.15;;;;;;;-145.68;100.00;73020.13;10493712;28;20256;-66
2023/07/16 04:14:32;;;;;;;5.28;2.70;;;;;;;-145.68;100.00;73028.09;10493704;28;20567;-67
2023/07/16 04:19:32;;;;;;;4.25;2.75;;;;;;;-145.68;100.00;73008.13;10493170;28;20587;-66
2023/07/16 04:24:32;;;;;;;4.78;2.90;;;;;;;-145.68;100.00;73024.13;10493592;28;20274;-67
2023/07/16 04:29:33;;;;;;;5.72;3.00;;;;;;;-145.68;100.00;73026.09;10501164;28;20261;-68
2023/07/16 04:34:33;;;;;;;4.13;3.10;;;;;;;-145.68;100.00;73052.09;10501403;28;20179;-68
2023/07/16 04:39:33;;;;;;;6.00;3.05;;;;;;;-145.68;100.00;73038.09;10500779;28;20223;-68
2023/07/16 04:44:34;;;;;;;5.97;3.30;;;;;;;-145.68;100.00;73040.09;10500759;28;20198;-68
2023/07/16 04:49:36;;;;;;;3.70;2.95;;;;;;;-145.68;100.00;73064.09;10500432;28;20319;-68
2023/07/16 04:54:37;;;;;;;5.75;3.03;;;;;;;-145.68;100.00;73060.09;10500386;28;20238;-68
2023/07/16 04:59:37;;;;;;;3.38;2.83;;;;;;;-145.68;100.00;73042.09;10500317;28;20253;-68
2023/07/16 05:04:38;;;;;;;3.03;2.72;;;;;;;-145.68;100.00;73028.09;10500041;28;20273;-68
2023/07/16 05:09:38;;;;;;;3.60;2.88;;;;;;;-145.68;100.00;73004.13;10499945;28;20568;-67
2023/07/16 05:14:46;;;;;;;3.40;2.70;;;;;;;-145.68;100.00;73002.13;10499624;28;20531;-68
2023/07/16 05:19:47;;;;;;;2.50;2.30;;;;;;;-145.68;100.00;73000.13;10499395;28;20229;-68
2023/07/16 05:24:47;;;;;;;2.70;2.50;;;;;;;-145.68;100.00;73014.13;10499409;28;20191;-68
2023/07/16 05:29:48;;;;;;;3.83;2.80;;;;;;;-145.68;100.00;73024.13;10498968;28;20211;-68
2023/07/16 05:34:48;;;;;;;3.90;2.70;;;;;;;-145.68;100.00;73020.13;10499070;28;20190;-68
2023/07/16 05:39:48;;;;;;;2.83;2.33;;;;;;;-145.68;100.00;73008.13;10498357;28;20229;-68
2023/07/16 05:44:49;;;;;;;4.00;2.33;;;;;;;-145.68;100.00;73002.13;10498547;28;20210;-68
2023/07/16 05:49:49;;;;;;;3.90;2.38;;;;;;;-145.68;100.00;72986.13;10498090;28;20239;-67
2023/07/16 05:54:50;;;;;;;1.73;1.63;;;;;;;-145.68;100.00;72966.16;10498114;28;20200;-66
2023/07/16 05:59:50;;;;;;;1.73;1.52;;;;;;;-145.68;100.00;72910.19;10497882;28;20322;-66
2023/07/16 06:04:50;;;;;;;2.20;1.83;;;;;;;-145.68;100.00;72876.22;10497671;28;20298;-67
2023/07/16 06:09:51;;;;;;;1.60;1.50;;;;;;;-145.68;100.00;72848.25;10497626;28;20203;-65
2023/07/16 06:14:51;;;;;;;0.90;0.90;;;;;;;-145.68;100.00;72756.31;10497382;28;20188;-67
2023/07/16 06:19:51;;;;;;;3.63;1.23;;;;;;;-145.68;100.00;72768.31;10497017;28;20766;-68
2023/07/16 06:24:52;;;;;;;2.90;1.40;;;;;;;-145.68;100.00;72756.31;10496953;28;20599;-68
2023/07/16 06:29:52;;;;;;;1.65;1.30;;;;;;;-145.68;100.00;72760.31;10496531;28;20210;-67
2023/07/16 06:34:52;;;;;;;3.33;1.40;;;;;;;-145.68;100.00;72780.28;10496573;28;20199;-67
2023/07/16 06:39:53;;;;;;;1.95;1.60;;;;;;;-145.68;100.00;72778.28;10495940;28;20223;-67
2023/07/16 06:44:53;;;;;;;2.97;1.48;;;;;;;-145.68;100.00;72780.28;10496168;28;20245;-66
2023/07/16 06:49:54;;;;;;;2.42;1.30;;;;;;;-145.68;100.00;72760.31;10495083;28;20587;-66
2023/07/16 06:54:55;;;;;;;1.77;1.27;;;;;;;-145.68;100.00;72754.31;10496077;28;20187;-65
2023/07/16 06:59:55;;;;;;;1.75;1.48;;;;;;;-145.68;98.50;72760.31;10494662;28;20705;-66
2023/07/16 07:04:55;;;;;;;1.95;1.38;;;;;;;-145.68;97.11;72666.38;10494183;28;20187;-66
2023/07/16 07:09:56;;;;;;;1.80;1.70;;;;;;;-145.68;81.94;72588.44;10497161;28;20215;-65
2023/07/16 07:14:56;;;;;;;1.70;1.50;;;;;;;-145.68;79.46;72618.44;10478923;28;20287;-65
2023/07/16 07:19:56;;;;;;;2.70;1.50;;;;;;;-145.68;80.33;72668.38;10453595;28;20222;-63
2023/07/16 07:24:57;;;;;;;1.70;1.58;;;;;;;-145.68;79.08;72590.44;10453323;28;20184;-64
2023/07/16 07:29:57;;;;;;;1.50;1.40;;;;;;;-145.68;71.61;72556.47;10453355;28;20204;-65
2023/07/16 07:34:57;;;;;;;3.22;1.23;;;;;;;-145.68;63.29;72366.63;10453034;28;20206;-65
2023/07/16 07:39:58;;;;;;;3.25;1.60;;;;;;;-145.68;60.17;72426.59;10452844;28;20220;-64
2023/07/16 07:44:59;;;;;;;1.60;1.40;;;;;;;-145.68;57.72;72414.59;10452704;28;20199;-65
2023/07/16 07:49:59;;;;;;;2.80;1.60;;;;;;;-145.68;55.96;72428.59;10467669;28;20226;-64
2023/07/16 07:54:59;;;;;;;3.47;1.80;;;;;;;-145.68;56.93;72370.63;10493935;28;20199;-63
2023/07/16 08:00:00;;;;;;;2.55;1.70;;;;;;;-145.68;58.95;72476.53;10494145;28;20227;-63
2023/07/16 08:05:00;;;;;;;2.15;1.60;;;;;;;-145.68;57.80;72552.47;10502502;28;20201;-64
2023/07/16 08:10:01;;;;;;;1.85;1.63;;;;;;;-145.68;56.96;72478.53;10500905;28;20264;-64
2023/07/16 08:15:01;;;;;;;2.28;1.63;;;;;;;-145.68;57.58;72438.56;10502144;28;20613;-65
2023/07/16 08:20:02;;;;;;;2.20;1.45;;;;;;;-145.68;55.74;72408.59;10501190;28;20234;-64
2023/07/16 08:25:03;;;;;;;4.88;1.98;;;;;;;-145.68;57.73;72484.53;10501640;28;20603;-64
2023/07/16 08:30:04;;;;;;;2.83;1.88;;;;;;;-145.68;55.17;72332.66;10501438;28;20275;-65
2023/07/16 08:35:04;;;;;;;2.17;1.48;;;;;;;-145.68;51.85;72128.84;10501268;28;20613;-64
2023/07/16 08:40:05;;;;;;;4.95;1.77;;;;;;;-145.68;50.71;72258.75;10501111;28;20242;-65
2023/07/16 08:45:10;;;;;;;4.18;1.58;;;;;;;-145.68;51.48;72274.72;10500613;28;20661;-64
2023/07/16 08:50:11;;;;;;;3.72;1.73;;;;;;;-145.68;49.70;72270.72;10500278;28;20592;-64
2023/07/16 08:55:11;;;;;;;2.65;1.88;;;;;;;-145.68;49.45;72280.72;10500515;28;20709;-65
2023/07/16 09:00:13;;;;;;;4.93;1.90;;;;;;;-145.68;51.58;72460.56;10498982;28;20252;-64
2023/07/16 09:05:14;;;;;;;2.92;1.73;;;;;;;-145.68;51.21;72344.66;10499238;28;20233;-65
2023/07/16 09:10:15;;;;;;;2.95;1.88;;;;;;;-145.68;49.75;72306.69;10498581;28;20731;-64
2023/07/16 09:15:19;;;;;;;4.13;1.58;;;;;;;-145.68;49.24;72274.72;10499569;28;20191;-64
2023/07/16 09:20:20;;;;;;;3.03;1.77;;;;;;;-145.68;48.80;72284.72;10499649;28;20226;-64
2023/07/16 09:25:28;;;;;;;3.95;1.88;;;;;;;-145.68;51.75;72564.47;10499606;28;20700;-65
2023/07/16 09:30:33;;;;;;;2.25;1.70;;;;;;;-145.68;48.06;72386.63;10499359;28;20211;-63
2023/07/16 09:35:35;;;;;;;3.45;2.15;;;;;;;-145.68;48.83;72346.66;10499350;28;20279;-64
2023/07/16 09:40:37;;;;;;;3.40;1.80;;;;;;;-145.68;49.35;72404.59;10498848;28;20219;-64
2023/07/16 09:45:37;;;;;;;4.38;2.00;;;;;;;-145.68;50.18;72398.63;10497840;28;20198;-64
2023/07/16 09:50:38;;;;;;;3.63;2.13;;;;;;;-145.68;46.71;72292.72;10498144;28;20246;-65
2023/07/16 09:55:39;;;;;;;5.22;1.55;;;;;;;-145.68;46.59;72282.72;10497251;28;20191;-64
2023/07/16 10:00:40;;;;;;;3.97;1.65;;;;;;;-145.68;46.14;72256.75;10498154;28;20705;-63
2023/07/16 10:05:40;;;;;;;2.35;1.48;;;;;;;-145.68;46.73;72366.63;10496857;28;20220;-63
2023/07/16 10:10:48;;;;;;;6.70;1.75;;;;;;;-145.68;46.48;72430.59;10498045;28;20211;-63
2023/07/16 10:15:56;;;;;;;3.85;1.88;;;;;;;-145.68;44.89;72364.63;10497625;28;20183;-64
2023/07/16 10:21:08;;;;;;;7.63;1.85;;;;;;;-145.68;43.22;72112.88;10497251;28;20211;-63
2023/07/16 10:26:11;;;;;;;4.57;1.90;;;;;;;-145.68;46.01;72360.66;10496124;28;20658;-63
2023/07/16 10:31:21;;;;;;;5.88;2.22;;;;;;;-145.68;42.20;72156.84;10496992;28;20207;-62
2023/07/16 10:36:21;;;;;;;4.78;1.73;;;;;;;-145.68;44.81;72400.59;10496752;28;20202;-64
2023/07/16 10:41:21;;;;;;;6.32;2.08;;;;;;;-145.68;45.43;72384.63;10496384;28;20234;-63
2023/07/16 10:46:22;;;;;;;4.18;1.65;;;;;;;-145.68;44.95;72420.59;10495162;28;20191;-63
2023/07/16 10:51:26;;;;;;;4.18;1.90;;;;;;;-145.68;44.82;72364.63;10483288;22;20246;-68
2023/07/16 10:56:26;;;;;;;2.08;1.77;;;;;;;-145.68;45.79;72380.63;10411489;28;20197;-69
2023/07/16 11:01:29;;;;;;;4.10;2.03;;;;;;;-145.68;46.50;72476.53;10427638;28;20698;-68
2023/07/16 11:06:30;;;;;;;6.38;1.85;;;;;;;-145.68;46.87;72432.59;10454271;28;20199;-68
2023/07/16 11:11:30;;;;;;;4.35;1.80;;;;;;;-145.68;46.59;72498.53;10454182;28;20219;-69
2023/07/16 11:16:35;;;;;;;6.25;1.60;;;;;;;-145.68;46.33;72308.69;10453900;28;20747;-68
2023/07/16 11:21:36;;;;;;;4.47;1.90;;;;;;;-145.68;44.42;72292.72;10453713;28;20215;-67
2023/07/16 11:26:37;;;;;;;3.38;2.15;;;;;;;-145.68;44.07;72246.75;10453886;28;20195;-69
2023/07/16 11:31:39;;;;;;;6.88;2.05;;;;;;;-145.68;42.98;72096.88;10453410;28;20200;-69
2023/07/16 11:36:39;;;;;;;6.50;1.60;;;;;;;-145.68;43.32;72136.84;10453320;28;20550;-68
2023/07/16 11:41:40;;;;;;;3.65;1.80;;;;;;;-145.68;43.09;72182.81;10452983;28;20229;-69
2023/07/16 11:46:40;;;;;;;9.07;2.05;;;;;;;-145.68;43.44;72218.78;10453136;28;20192;-68
2023/07/16 11:51:43;;;;;;;4.20;2.17;;;;;;;-145.68;41.57;72136.84;10452715;28;20889;-69
2023/07/16 11:56:43;;;;;;;3.17;1.70;;;;;;;-145.68;39.40;71991.00;10452927;28;20253;-69
2023/07/16 12:01:43;;;;;;;3.03;1.90;;;;;;;-145.68;40.09;72066.91;10452771;28;20211;-69
2023/07/16 12:06:44;;;;;;;2.63;1.70;;;;;;;-145.68;40.71;72122.88;10452765;28;20188;-69
2023/07/16 12:11:44;;;;;;;3.92;1.83;;;;;;;-145.68;39.92;72086.91;10452648;28;20698;-69
2023/07/16 12:16:44;;;;;;;3.00;1.90;;;;;;;-145.68;40.48;72070.91;10452490;28;20188;-68
2023/07/16 12:21:45;;;;;;;4.55;1.58;;;;;;;-145.68;39.74;72112.88;10452377;28;20216;-68
2023/07/16 12:26:45;;;;;;;4.20;1.98;;;;;;;-145.68;40.80;72112.88;10452339;28;20199;-69
2023/07/16 12:31:46;;;;;;;2.42;1.75;;;;;;;-145.68;39.54;72022.97;10452242;28;20727;-68
2023/07/16 12:36:46;;;;;;;3.05;1.80;;;;;;;-145.68;39.57;71983.00;10452295;28;20566;-68
2023/07/16 12:41:46;;;;;;;4.00;1.55;;;;;;;-145.68;37.90;71935.03;10451784;28;20216;-68
2023/07/16 12:46:47;;;;;;;3.55;2.03;;;;;;;-145.68;40.75;72038.94;10454082;28;20657;-69
2023/07/16 12:51:47;;;;;;;3.20;1.85;;;;;;;-145.68;39.85;71949.03;10459252;28;20345;-68
2023/07/16 12:56:48;;;;;;;4.40;1.90;;;;;;;-145.68;39.87;71981.00;10459772;28;20188;-67
2023/07/16 13:01:48;;;;;;;4.57;2.10;;;;;;;-145.68;40.24;72042.94;10459047;28;20228;-68
2023/07/16 13:06:48;;;;;;;3.72;1.90;;;;;;;-145.68;39.57;72040.94;10459170;28;20554;-69
2023/07/16 13:11:49;;;;;;;3.45;1.77;;;;;;;-145.68;37.60;71821.16;10459032;28;20357;-68
2023/07/16 13:16:49;;;;;;;6.07;2.13;;;;;;;-145.68;37.00;71841.13;10458671;28;20190;-68
2023/07/16 13:21:49;;;;;;;5.22;1.90;;;;;;;-145.68;38.40;71873.09;10458562;28;20231;-69
2023/07/16 13:26:50;;;;;;;3.15;1.88;;;;;;;-145.68;37.43;72000.97;10458241;28;20777;-69
2023/07/16 13:31:50;;;;;;;3.20;1.92;;;;;;;-145.68;36.92;71993.00;10458270;28;20577;-69
2023/07/16 13:36:51;;;;;;;5.80;1.98;;;;;;;-145.68;37.33;71989.00;10458115;28;20200;-69
2023/07/16 13:41:51;;;;;;;2.27;1.90;;;;;;;-145.68;35.05;71745.25;10457562;28;20228;-70
2023/07/16 13:46:51;;;;;;;3.53;2.05;;;;;;;-145.68;34.82;71791.19;10439972;28;20506;-69
2023/07/16 13:51:52;;;;;;;5.53;2.30;;;;;;;-145.68;36.16;71921.06;10457290;28;20258;-68
2023/07/16 13:56:52;;;;;;;4.93;2.10;;;;;;;-145.68;33.99;71645.34;10454790;28;20457;-69
2023/07/16 14:02:00;;;;;;;2.57;1.87;;;;;;;-145.68;33.59;71771.22;10455970;28;20220;-69
2023/07/16 14:07:01;;;;;;;4.05;1.77;;;;;;;-145.68;34.13;71673.31;10456843;28;20989;-69
2023/07/16 14:12:01;;;;;;;4.05;1.83;;;;;;;-145.68;34.33;71637.34;10457008;28;20261;-69
2023/07/16 14:17:02;;;;;;;5.45;1.90;;;;;;;-145.68;32.16;71489.50;10456481;28;20188;-69
2023/07/16 14:22:02;;;;;;;7.38;2.20;;;;;;;-145.68;30.48;71217.81;10456353;28;20232;-69
2023/07/16 14:27:03;;;;;;;4.25;1.70;;;;;;;-145.68;28.49;70962.13;10456105;28;20214;-70
2023/07/16 14:32:04;;;;;;;2.38;1.63;;;;;;;-145.68;30.67;71285.75;10456118;28;20211;-70
2023/07/16 14:37:04;;;;;;;5.07;1.75;;;;;;;-145.68;31.91;71513.50;10455944;28;20635;-70
2023/07/16 14:42:05;;;;;;;5.65;1.92;;;;;;;-145.68;31.01;71295.72;10455800;28;20318;-69
2023/07/16 14:47:06;;;;;;;3.27;1.80;;;;;;;-145.68;30.34;71281.75;10461552;28;20194;-69
2023/07/16 14:52:06;;;;;;;2.78;1.55;;;;;;;-145.68;28.79;70980.13;10457332;28;20482;-69
2023/07/16 14:57:07;;;;;;;2.10;1.80;;;;;;;-145.68;29.93;71209.84;10456676;28;20752;-69
2023/07/16 15:02:07;;;;;;;4.95;2.10;;;;;;;-145.68;29.80;71185.88;10455731;28;20211;-69
2023/07/16 15:07:07;;;;;;;3.50;1.90;;;;;;;-145.68;28.53;71004.09;10455317;28;20244;-69
2023/07/16 15:12:08;;;;;;;3.83;1.85;;;;;;;-145.68;28.63;70978.13;10454234;28;20450;-69
2023/07/16 15:17:09;;;;;;;5.50;1.92;;;;;;;-145.68;27.91;70804.34;10454917;28;20190;-69
2023/07/16 15:22:09;;;;;;;3.70;1.57;;;;;;;-145.68;27.19;70672.50;10454148;28;20223;-70
2023/07/16 15:27:10;;;;;;;2.75;1.70;;;;;;;-145.68;29.22;71083.97;10454166;28;20840;-69
2023/07/16 15:32:10;;;;;;;3.35;2.10;;;;;;;-145.68;32.00;71455.56;10453908;28;20776;-69
2023/07/16 15:37:11;;;;;;;4.77;1.50;;;;;;;-145.68;30.00;71157.91;10453851;28;20187;-69
2023/07/16 15:42:11;;;;;;;4.40;1.90;;;;;;;-145.68;28.08;70842.28;10453869;28;20495;-70
2023/07/16 15:47:11;;;;;;;3.50;1.80;;;;;;;-145.68;28.32;70820.31;10453012;28;20437;-70
2023/07/16 15:52:12;;;;;;;9.93;2.13;;;;;;;-145.68;27.47;70802.34;10452745;28;20553;-70
2023/07/16 15:57:12;;;;;;;4.70;2.13;;;;;;;-145.68;27.64;70806.31;10453107;28;20203;-70
2023/07/16 16:02:12;;;;;;;3.97;1.60;;;;;;;-145.68;30.49;71253.78;10452922;28;20485;-69
2023/07/16 16:07:13;;;;;;;5.80;2.20;;;;;;;-145.68;31.18;71309.72;10453179;28;20449;-69
2023/07/16 16:12:13;;;;;;;5.13;1.60;;;;;;;-145.68;30.19;71153.91;10452513;28;20439;-69
2023/07/16 16:17:13;;;;;;;4.32;1.50;;;;;;;-145.68;30.51;71223.81;10452896;28;20449;-69
2023/07/16 16:22:14;;;;;;;5.47;2.00;;;;;;;-145.68;32.92;71525.47;10454997;28;20224;-68
2023/07/16 16:27:15;;;;;;;4.70;2.20;;;;;;;-145.68;33.07;71569.44;10460914;28;20441;-68
2023/07/16 16:32:16;;;;;;;5.43;1.70;;;;;;;-145.68;33.31;71509.50;10460604;28;20465;-69
2023/07/16 16:37:16;;;;;;;3.38;1.90;;;;;;;-145.68;33.30;71561.44;10460164;28;20195;-68
2023/07/16 16:42:17;;;;;;;3.63;1.60;;;;;;;-145.68;34.47;71639.34;10460139;28;20306;-69
2023/07/16 16:47:17;;;;;;;5.13;1.90;;;;;;;-145.68;33.99;71677.31;10459773;28;20263;-68
2023/07/16 16:52:17;;;;;;;2.93;1.83;;;;;;;-145.68;34.96;71793.19;10478928;22;20514;-65
2023/07/16 16:57:18;;;;;;;3.97;1.93;;;;;;;-145.68;35.83;71821.16;10456917;28;20517;-65
2023/07/16 17:02:19;;;;;;;6.85;2.30;;;;;;;-145.68;35.52;71789.19;10458921;28;20486;-64
2023/07/16 17:07:21;;;;;;;8.45;1.80;;;;;;;-145.68;35.98;71853.13;10458895;28;20596;-64
2023/07/16 17:12:22;;;;;;;4.20;2.08;;;;;;;-145.68;36.35;71855.13;10458688;28;20242;-65
2023/07/16 17:17:23;;;;;;;3.72;1.73;;;;;;;-145.68;35.99;71877.09;10458731;28;20207;-65
2023/07/16 17:22:23;;;;;;;3.75;2.08;;;;;;;-145.68;35.84;71839.16;10458170;28;20215;-65
2023/07/16 17:27:23;;;;;;;5.60;2.10;;;;;;;-145.68;36.60;71931.06;10458392;28;20188;-65
2023/07/16 17:32:24;;;;;;;6.60;2.17;;;;;;;-145.68;36.41;71935.03;10457590;28;20208;-65
2023/07/16 17:37:24;;;;;;;3.75;2.10;;;;;;;-145.68;36.69;71937.03;10457872;28;21019;-65
2023/07/16 17:42:25;;;;;;;7.47;2.20;;;;;;;-145.68;36.94;72004.97;10457346;28;20227;-66
2023/07/16 17:47:25;;;;;;;4.07;1.92;;;;;;;-145.68;37.32;72030.94;10457362;28;20200;-64
2023/07/16 17:52:25;;;;;;;3.83;2.05;;;;;;;-145.68;38.09;72100.88;10457081;28;20250;-66
2023/07/16 17:57:26;;;;;;;3.83;1.88;;;;;;;-145.68;38.45;72064.91;10456898;28;20196;-65
2023/07/16 18:02:26;;;;;;;4.22;1.92;;;;;;;-145.68;38.75;72090.91;10456784;28;20216;-65
2023/07/16 18:07:27;;;;;;;6.13;1.98;;;;;;;-145.68;39.23;72172.81;10456744;28;20298;-65
2023/07/16 18:12:27;;;;;;;2.88;2.00;;;;;;;-145.68;39.59;72194.78;10456364;28;20215;-66
2023/07/16 18:17:28;;;;;;;2.95;2.13;;;;;;;-145.68;40.47;72224.78;10455716;28;20184;-65
2023/07/16 18:22:28;;;;;;;5.38;2.13;;;;;;;-145.68;41.11;72264.72;10455523;28;20219;-64
2023/07/16 18:27:29;;;;;;;4.63;1.83;;;;;;;-145.68;41.97;72292.72;10455500;28;20183;-65
2023/07/16 18:32:29;;;;;;;6.30;2.30;;;;;;;-145.68;42.91;72340.66;10455115;28;20290;-64
2023/07/16 18:37:30;;;;;;;3.97;1.85;;;;;;;-145.68;44.50;72398.63;10455023;28;20222;-63
2023/07/16 18:42:31;;;;;;;5.40;1.90;;;;;;;-145.68;46.11;72464.56;10454520;28;20223;-64
2023/07/16 18:47:32;;;;;;;6.43;2.28;;;;;;;-145.68;47.42;72510.50;10454141;28;20230;-65
2023/07/16 18:52:33;;;;;;;4.40;2.38;;;;;;;-145.68;49.18;72556.47;10454144;28;20215;-65
2023/07/16 18:57:33;;;;;;;5.05;2.03;;;;;;;-145.68;50.35;72644.41;10454243;28;20196;-64
2023/07/16 19:02:33;;;;;;;4.95;2.38;;;;;;;-145.68;50.99;72686.38;10453776;28;20717;-63
2023/07/16 19:07:34;;;;;;;4.88;2.38;;;;;;;-145.68;51.57;72666.38;10453765;28;20184;-64
2023/07/16 19:12:34;;;;;;;4.68;2.40;;;;;;;-145.68;53.93;72730.34;10453624;28;20207;-64
2023/07/16 19:17:35;;;;;;;5.22;2.90;;;;;;;-145.68;55.30;72782.28;10453197;28;20212;-64
2023/07/16 19:22:35;;;;;;;5.07;2.60;;;;;;;-145.68;55.82;72836.25;10453373;28;20212;-63
2023/07/16 19:27:35;;;;;;;6.13;2.65;;;;;;;-145.68;57.66;72904.19;10452984;28;20275;-64
2023/07/16 19:32:36;;;;;;;5.97;2.70;;;;;;;-145.68;57.95;72894.22;10452937;28;20219;-62
2023/07/16 19:37:36;;;;;;;6.95;2.63;;;;;;;-145.68;58.77;72930.19;10452847;28;20179;-63
2023/07/16 19:42:36;;;;;;;6.88;2.92;;;;;;;-145.68;59.44;72944.16;10452413;28;20216;-64
2023/07/16 19:47:39;;;;;;;3.55;2.70;;;;;;;-145.68;59.44;72948.16;10452668;28;20203;-64
2023/07/16 19:52:39;;;;;;;7.03;3.00;;;;;;;-145.68;60.44;72966.16;10451983;28;20259;-64
2023/07/16 19:57:42;;;;;;;5.18;2.83;;;;;;;-145.68;61.43;73008.13;10452275;28;20231;-63
2023/07/16 20:02:43;;;;;;;5.30;2.67;;;;;;;-145.68;60.61;73002.13;10452023;28;20223;-64
2023/07/16 20:07:43;;;;;;;7.55;2.50;;;;;;;-145.68;61.78;73022.13;10452236;28;20691;-63
2023/07/16 20:12:45;;;;;;;4.30;2.75;;;;;;;-145.68;62.49;73040.09;10452120;28;20262;-63
2023/07/16 20:17:45;;;;;;;6.18;2.75;;;;;;;-145.68;64.72;73054.09;10451949;28;20192;-62
2023/07/16 20:22:46;;;;;;;4.18;2.92;;;;;;;-145.68;65.63;73084.06;10453211;28;20729;-65
2023/07/16 20:27:53;;;;;;;7.13;2.75;;;;;;;-145.68;65.51;73082.06;10454814;28;20290;-63
2023/07/16 20:32:55;;;;;;;4.22;2.83;;;;;;;-145.68;64.55;73068.06;10452056;28;20287;-63
2023/07/16 20:37:56;;;;;;;4.20;2.80;;;;;;;-145.68;64.50;73072.06;10452219;28;20192;-64
2023/07/16 20:42:57;;;;;;;5.70;2.92;;;;;;;-145.68;65.31;73088.06;10451549;28;20219;-63
2023/07/16 20:47:58;;;;;;;4.13;2.88;;;;;;;-145.68;64.77;73080.06;10452027;28;20253;-64
2023/07/16 20:52:59;;;;;;;7.55;3.38;;;;;;;-145.68;65.12;73084.06;10451332;28;20638;-63
2023/07/16 20:58:00;;;;;;;7.20;3.08;;;;;;;-145.68;64.59;73072.06;10434046;28;20238;-63
2023/07/16 21:03:05;;;;;;;7.03;2.70;;;;;;;-145.68;64.55;73074.06;10451459;28;20713;-63
2023/07/16 21:08:06;;;;;;;4.90;2.40;;;;;;;-145.68;64.79;73096.06;10453386;28;20219;-65
2023/07/16 21:13:06;;;;;;;5.88;2.80;;;;;;;-145.68;64.94;73096.06;10459134;28;20200;-64
2023/07/16 21:18:07;;;;;;;3.47;2.60;;;;;;;-145.68;65.36;73116.03;10458567;28;20217;-64
2023/07/16 21:23:07;;;;;;;7.38;2.65;;;;;;;-145.68;65.54;73116.03;10458513;28;20223;-64
2023/07/16 21:28:08;;;;;;;4.47;2.72;;;;;;;-145.68;66.64;73128.03;10458330;28;20208;-64
2023/07/16 21:33:09;;;;;;;7.38;2.80;;;;;;;-145.68;68.02;73144.03;10457990;28;20208;-64
2023/07/16 21:38:09;;;;;;;8.32;2.90;;;;;;;-145.68;68.30;73162.00;10458183;28;20188;-64
2023/07/16 21:43:09;;;;;;;4.43;2.50;;;;;;;-145.68;68.33;73166.00;10457466;28;20650;-64
2023/07/16 21:48:10;;;;;;;4.65;3.30;;;;;;;-145.68;68.84;73182.00;10457868;28;20214;-64
2023/07/16 21:53:14;;;;;;;3.50;2.60;;;;;;;-145.68;69.89;73205.97;10457113;28;20235;-64
2023/07/16 21:58:14;;;;;;;6.78;3.22;;;;;;;-145.68;69.97;73209.97;10457121;28;20646;-63
2023/07/16 22:03:14;;;;;;;7.72;3.17;;;;;;;-145.68;70.17;73207.97;10456951;28;20222;-64
2023/07/16 22:08:15;;;;;;;9.95;2.83;;;;;;;-145.68;71.18;73221.97;10456668;28;20192;-63
2023/07/16 22:13:15;;;;;;;6.25;2.85;;;;;;;-145.68;71.58;73225.97;10456683;28;20290;-64
2023/07/16 22:18:16;;;;;;;7.30;3.00;;;;;;;-145.68;71.91;73241.97;10455710;28;20196;-62
2023/07/16 22:23:17;;;;;;;3.85;2.80;;;;;;;-145.68;72.58;73261.94;10455723;28;20224;-63
2023/07/16 22:28:17;;;;;;;4.88;2.92;;;;;;;-145.68;72.04;73263.94;10456036;28;20880;-64
2023/07/16 22:33:17;;;;;;;4.32;3.03;;;;;;;-145.68;71.93;73257.94;10455698;28;20631;-64
2023/07/16 22:38:18;;;;;;;8.43;2.92;;;;;;;-145.68;72.60;73277.94;10455699;28;20249;-64
2023/07/16 22:43:18;;;;;;;7.25;3.05;;;;;;;-145.68;72.38;73287.94;10455124;28;20226;-63